createdAt,value
2023-03-29T00:00:34.918Z,4.86
2023-03-29T00:01:36.503Z,4.86
2023-03-29T00:02:35.001Z,4.84
2023-03-29T00:03:35.092Z,4.82
2023-03-29T00:04:34.965Z,4.80
2023-03-29T00:05:34.978Z,4.80
2023-03-29T00:06:34.853Z,4.80
2023-03-29T00:07:34.813Z,4.78
2023-03-29T00:08:34.798Z,4.78
2023-03-29T00:09:34.785Z,4.77
2023-03-29T00:10:34.798Z,4.73
2023-03-29T00:11:34.770Z,4.73
2023-03-29T00:12:34.760Z,4.77
2023-03-29T00:13:34.756Z,4.72
2023-03-29T00:14:34.766Z,4.70
2023-03-29T00:15:34.717Z,4.70
2023-03-29T00:16:34.784Z,4.69
2023-03-29T00:17:34.715Z,4.70
2023-03-29T00:18:34.713Z,4.69
2023-03-29T00:19:34.725Z,4.69
2023-03-29T00:20:34.674Z,4.66
2023-03-29T00:21:34.716Z,4.66
2023-03-29T00:22:34.636Z,4.65
2023-03-29T00:23:34.616Z,4.63
2023-03-29T00:24:34.642Z,4.62
2023-03-29T00:25:34.603Z,4.60
2023-03-29T00:26:34.632Z,4.59
2023-03-29T00:27:34.633Z,4.59
2023-03-29T00:28:34.579Z,4.60
2023-03-29T00:29:34.554Z,4.59
2023-03-29T00:30:34.560Z,4.55
2023-03-29T00:31:34.574Z,4.58
2023-03-29T00:32:34.582Z,4.58
2023-03-29T00:33:34.520Z,4.59
2023-03-29T00:34:34.558Z,4.59
2023-03-29T00:35:34.498Z,4.60
2023-03-29T00:36:34.497Z,4.59
2023-03-29T00:37:34.486Z,4.59
2023-03-29T00:38:34.467Z,4.58
2023-03-29T00:39:34.490Z,4.58
2023-03-29T00:40:34.453Z,4.55
2023-03-29T00:41:34.429Z,4.54
2023-03-29T00:42:34.423Z,4.54
2023-03-29T00:43:34.426Z,4.54
2023-03-29T00:44:34.394Z,4.50
2023-03-29T00:45:34.401Z,4.48
2023-03-29T00:46:34.422Z,4.48
2023-03-29T00:47:34.397Z,4.48
2023-03-29T00:48:34.353Z,4.47
2023-03-29T00:49:34.363Z,4.47
2023-03-29T00:50:34.328Z,4.45
2023-03-29T00:51:34.362Z,4.42
2023-03-29T00:52:34.311Z,4.44
2023-03-29T00:53:34.300Z,4.41
2023-03-29T00:54:34.296Z,4.41
2023-03-29T00:55:34.293Z,4.40
2023-03-29T00:56:34.282Z,4.36
2023-03-29T00:57:34.262Z,4.37
2023-03-29T00:58:34.265Z,4.37
2023-03-29T00:59:34.236Z,4.34
2023-03-29T01:00:34.231Z,4.33
2023-03-29T01:01:34.347Z,4.32
2023-03-29T01:02:34.330Z,4.26
2023-03-29T01:03:34.319Z,4.26
2023-03-29T01:04:34.165Z,4.22
2023-03-29T01:05:34.154Z,4.20
2023-03-29T01:06:34.166Z,4.15
2023-03-29T01:07:34.141Z,4.15
2023-03-29T01:08:34.137Z,4.15
2023-03-29T01:09:34.107Z,4.11
2023-03-29T01:10:34.096Z,4.11
2023-03-29T01:11:34.093Z,4.11
2023-03-29T01:12:34.106Z,4.09
2023-03-29T01:13:34.073Z,4.06
2023-03-29T01:14:34.084Z,4.05
2023-03-29T01:15:34.060Z,4.06
2023-03-29T01:16:34.105Z,4.02
2023-03-29T01:17:34.053Z,4.02
2023-03-29T01:18:34.060Z,4.02
2023-03-29T01:19:34.073Z,4.00
2023-03-29T01:20:34.034Z,4.02
2023-03-29T01:21:33.999Z,4.00
2023-03-29T01:22:33.959Z,4.00
2023-03-29T01:23:33.947Z,4.00
2023-03-29T01:24:34.017Z,4.04
2023-03-29T01:25:33.964Z,4.00
2023-03-29T01:26:33.926Z,3.98
2023-03-29T01:27:33.925Z,3.96
2023-03-29T01:28:33.910Z,3.94
2023-03-29T01:29:33.898Z,3.94
2023-03-29T01:30:33.886Z,3.94
2023-03-29T01:31:33.901Z,3.94
2023-03-29T01:32:33.934Z,3.91
2023-03-29T01:33:33.844Z,3.93
2023-03-29T01:34:33.835Z,3.91
2023-03-29T01:35:33.837Z,3.91
2023-03-29T01:36:33.820Z,3.93
2023-03-29T01:37:33.827Z,3.91
2023-03-29T01:38:33.786Z,3.90
2023-03-29T01:39:33.794Z,3.88
2023-03-29T01:40:33.796Z,3.88
2023-03-29T01:41:33.758Z,3.91
2023-03-29T01:42:33.759Z,3.90
2023-03-29T01:43:33.750Z,3.90
2023-03-29T01:44:33.793Z,3.88
2023-03-29T01:45:33.705Z,3.90
2023-03-29T01:46:33.728Z,3.90
2023-03-29T01:47:33.723Z,3.91
2023-03-29T01:48:33.711Z,3.88
2023-03-29T01:49:33.677Z,3.90
2023-03-29T01:50:33.699Z,3.87
2023-03-29T01:51:33.667Z,3.88
2023-03-29T01:52:33.633Z,3.88
2023-03-29T01:53:33.614Z,3.90
2023-03-29T01:54:33.603Z,3.90
2023-03-29T01:55:33.625Z,3.90
2023-03-29T01:56:33.577Z,3.90
2023-03-29T01:57:33.573Z,3.91
2023-03-29T01:58:33.574Z,3.91
2023-03-29T01:59:33.542Z,3.90
2023-03-29T02:00:33.625Z,3.91
2023-03-29T02:01:33.559Z,3.93
2023-03-29T02:02:33.661Z,3.93
2023-03-29T02:03:33.599Z,3.91
2023-03-29T02:04:33.517Z,3.94
2023-03-29T02:05:33.473Z,3.91
2023-03-29T02:06:33.469Z,3.94
2023-03-29T02:07:33.461Z,3.96
2023-03-29T02:08:33.458Z,3.94
2023-03-29T02:09:33.434Z,3.94
2023-03-29T02:10:33.413Z,3.97
2023-03-29T02:11:33.416Z,3.96
2023-03-29T02:12:33.432Z,3.93
2023-03-29T02:13:33.438Z,3.96
2023-03-29T02:14:33.400Z,3.96
2023-03-29T02:15:33.398Z,3.94
2023-03-29T02:16:33.351Z,3.91
2023-03-29T02:17:33.348Z,3.94
2023-03-29T02:18:33.373Z,3.91
2023-03-29T02:19:33.340Z,3.93
2023-03-29T02:20:33.370Z,3.91
2023-03-29T02:21:33.285Z,3.90
2023-03-29T02:22:33.280Z,3.90
2023-03-29T02:23:33.268Z,3.90
2023-03-29T02:24:33.280Z,3.88
2023-03-29T02:25:33.258Z,3.88
2023-03-29T02:26:33.242Z,3.87
2023-03-29T02:27:33.242Z,3.88
2023-03-29T02:28:33.254Z,3.86
2023-03-29T02:29:33.210Z,3.87
2023-03-29T02:30:33.200Z,3.90
2023-03-29T02:31:33.243Z,3.87
2023-03-29T02:32:33.216Z,3.87
2023-03-29T02:33:33.166Z,3.90
2023-03-29T02:34:33.147Z,3.90
2023-03-29T02:35:33.209Z,3.88
2023-03-29T02:36:33.138Z,3.91
2023-03-29T02:37:33.119Z,3.88
2023-03-29T02:38:33.117Z,3.91
2023-03-29T02:39:33.086Z,3.90
2023-03-29T02:40:33.100Z,3.88
2023-03-29T02:41:33.070Z,3.86
2023-03-29T02:42:33.064Z,3.86
2023-03-29T02:43:33.062Z,3.84
2023-03-29T02:44:33.034Z,3.84
2023-03-29T02:45:33.074Z,3.83
2023-03-29T02:46:33.053Z,3.83
2023-03-29T02:47:33.021Z,3.80
2023-03-29T02:48:33.070Z,3.80
2023-03-29T02:49:32.980Z,3.83
2023-03-29T02:50:32.983Z,3.80
2023-03-29T02:51:32.951Z,3.83
2023-03-29T02:52:32.946Z,3.83
2023-03-29T02:53:32.953Z,3.84
2023-03-29T02:54:32.936Z,3.84
2023-03-29T02:55:32.976Z,3.83
2023-03-29T02:56:32.939Z,3.83
2023-03-29T02:57:32.893Z,3.80
2023-03-29T02:58:32.902Z,3.79
2023-03-29T02:59:32.863Z,3.79
2023-03-29T03:00:32.879Z,3.78
2023-03-29T03:01:32.873Z,3.79
2023-03-29T03:02:32.938Z,3.79
2023-03-29T03:03:32.898Z,3.76
2023-03-29T03:04:32.810Z,3.78
2023-03-29T03:05:32.798Z,3.76
2023-03-29T03:06:32.795Z,3.75
2023-03-29T03:07:32.835Z,3.76
2023-03-29T03:08:32.810Z,3.78
2023-03-29T03:09:32.770Z,3.75
2023-03-29T03:10:32.747Z,3.73
2023-03-29T03:11:32.733Z,3.75
2023-03-29T03:12:32.736Z,3.73
2023-03-29T03:13:32.780Z,3.75
2023-03-29T03:14:32.718Z,3.76
2023-03-29T03:15:32.736Z,3.75
2023-03-29T03:16:32.719Z,3.76
2023-03-29T03:17:32.687Z,3.73
2023-03-29T03:18:32.820Z,3.73
2023-03-29T03:19:32.670Z,3.73
2023-03-29T03:20:32.636Z,3.76
2023-03-29T03:21:32.620Z,3.76
2023-03-29T03:22:32.614Z,3.78
2023-03-29T03:23:32.597Z,3.75
2023-03-29T03:24:32.647Z,3.76
2023-03-29T03:25:32.610Z,3.76
2023-03-29T03:26:32.585Z,3.75
2023-03-29T03:27:32.577Z,3.75
2023-03-29T03:28:32.538Z,3.75
2023-03-29T03:29:32.536Z,3.78
2023-03-29T03:30:32.590Z,3.78
2023-03-29T03:31:32.655Z,3.78
2023-03-29T03:32:32.511Z,3.76
2023-03-29T03:33:32.500Z,3.75
2023-03-29T03:34:32.467Z,3.75
2023-03-29T03:35:32.527Z,3.75
2023-03-29T03:36:32.485Z,3.75
2023-03-29T03:37:32.457Z,3.72
2023-03-29T03:38:32.532Z,3.73
2023-03-29T03:39:32.411Z,3.73
2023-03-29T03:40:32.411Z,3.72
2023-03-29T03:41:32.429Z,3.70
2023-03-29T03:42:32.392Z,3.69
2023-03-29T03:43:32.376Z,3.70
2023-03-29T03:44:32.367Z,3.72
2023-03-29T03:45:32.359Z,3.72
2023-03-29T03:46:32.347Z,3.73
2023-03-29T03:47:32.359Z,3.76
2023-03-29T03:48:32.353Z,3.73
2023-03-29T03:49:32.310Z,3.75
2023-03-29T03:50:32.288Z,3.73
2023-03-29T03:51:32.289Z,3.73
2023-03-29T03:52:32.285Z,3.73
2023-03-29T03:53:32.285Z,3.72
2023-03-29T03:54:32.241Z,3.72
2023-03-29T03:55:32.287Z,3.72
2023-03-29T03:56:32.254Z,3.73
2023-03-29T03:57:32.214Z,3.70
2023-03-29T03:58:32.204Z,3.75
2023-03-29T03:59:32.204Z,3.75
2023-03-29T04:00:32.208Z,3.75
2023-03-29T04:01:32.172Z,3.75
2023-03-29T04:02:32.237Z,3.75
2023-03-29T04:03:32.232Z,3.75
2023-03-29T04:04:32.244Z,3.75
2023-03-29T04:05:32.121Z,3.76
2023-03-29T04:06:32.185Z,3.73
2023-03-29T04:07:32.105Z,3.76
2023-03-29T04:08:32.162Z,3.78
2023-03-29T04:09:32.133Z,3.79
2023-03-29T04:10:32.068Z,3.78
2023-03-29T04:11:32.111Z,3.80
2023-03-29T04:12:32.060Z,3.80
2023-03-29T04:13:32.053Z,3.78
2023-03-29T04:14:32.045Z,3.79
2023-03-29T04:15:32.008Z,3.80
2023-03-29T04:16:31.953Z,3.83
2023-03-29T04:17:32.051Z,3.80
2023-03-29T04:18:32.092Z,3.83
2023-03-29T04:19:31.972Z,3.83
2023-03-29T04:20:31.947Z,3.86
2023-03-29T04:21:31.960Z,3.84
2023-03-29T04:22:31.919Z,3.84
2023-03-29T04:23:31.919Z,3.90
2023-03-29T04:24:31.930Z,3.90
2023-03-29T04:25:31.906Z,3.90
2023-03-29T04:26:31.880Z,3.90
2023-03-29T04:27:31.884Z,3.90
2023-03-29T04:28:31.870Z,3.93
2023-03-29T04:29:31.894Z,3.93
2023-03-29T04:30:31.867Z,3.94
2023-03-29T04:31:31.997Z,3.94
2023-03-29T04:32:31.856Z,3.96
2023-03-29T04:33:31.812Z,3.97
2023-03-29T04:34:31.846Z,3.96
2023-03-29T04:35:31.885Z,3.96
2023-03-29T04:36:31.796Z,3.94
2023-03-29T04:37:31.778Z,3.96
2023-03-29T04:38:31.773Z,3.93
2023-03-29T04:39:31.824Z,3.93
2023-03-29T04:40:31.737Z,3.88
2023-03-29T04:41:31.782Z,3.90
2023-03-29T04:42:31.673Z,3.91
2023-03-29T04:43:31.658Z,3.91
2023-03-29T04:44:31.673Z,3.88
2023-03-29T04:45:31.673Z,3.90
2023-03-29T04:46:31.678Z,3.91
2023-03-29T04:47:31.629Z,3.91
2023-03-29T04:48:31.705Z,3.91
2023-03-29T04:49:31.650Z,3.91
2023-03-29T04:50:31.558Z,3.93
2023-03-29T04:51:31.550Z,3.91
2023-03-29T04:52:31.542Z,3.93
2023-03-29T04:53:31.525Z,3.94
2023-03-29T04:54:31.530Z,3.93
2023-03-29T04:55:31.510Z,3.93
2023-03-29T04:56:31.483Z,3.93
2023-03-29T04:57:31.504Z,3.96
2023-03-29T04:58:32.436Z,3.96
2023-03-29T04:59:31.489Z,3.97
2023-03-29T05:00:31.468Z,3.96
2023-03-29T05:01:31.499Z,3.97
2023-03-29T05:02:31.485Z,3.97
2023-03-29T05:03:31.436Z,3.97
2023-03-29T05:04:31.531Z,4.00
2023-03-29T05:05:31.423Z,3.97
2023-03-29T05:06:31.385Z,4.02
2023-03-29T05:07:31.386Z,3.98
2023-03-29T05:08:31.383Z,3.97
2023-03-29T05:09:33.643Z,4.02
2023-03-29T05:10:31.335Z,3.98
2023-03-29T05:11:31.324Z,4.00
2023-03-29T05:12:31.317Z,4.00
2023-03-29T05:13:31.309Z,4.02
2023-03-29T05:14:31.288Z,4.02
2023-03-29T05:15:31.356Z,4.05
2023-03-29T05:16:31.356Z,4.02
2023-03-29T05:17:31.302Z,4.05
2023-03-29T05:18:31.257Z,4.05
2023-03-29T05:19:31.252Z,4.06
2023-03-29T05:20:31.236Z,4.05
2023-03-29T05:21:31.206Z,4.09
2023-03-29T05:22:31.350Z,4.08
2023-03-29T05:23:31.189Z,4.11
2023-03-29T05:24:31.176Z,4.12
2023-03-29T05:25:31.179Z,4.12
2023-03-29T05:26:31.148Z,4.12
2023-03-29T05:27:31.236Z,4.14
2023-03-29T05:28:31.137Z,4.16
2023-03-29T05:29:31.163Z,4.18
2023-03-29T05:30:31.105Z,4.16
2023-03-29T05:31:31.139Z,4.16
2023-03-29T05:32:31.144Z,4.20
2023-03-29T05:33:31.084Z,4.18
2023-03-29T05:34:31.079Z,4.22
2023-03-29T05:35:31.120Z,4.22
2023-03-29T05:36:31.049Z,4.23
2023-03-29T05:37:31.032Z,4.24
2023-03-29T05:38:31.074Z,4.26
2023-03-29T05:39:30.998Z,4.27
2023-03-29T05:40:31.013Z,4.27
2023-03-29T05:41:31.022Z,4.29
2023-03-29T05:42:31.106Z,4.29
2023-03-29T05:43:30.962Z,4.32
2023-03-29T05:44:31.011Z,4.33
2023-03-29T05:45:30.977Z,4.32
2023-03-29T05:46:30.934Z,4.33
2023-03-29T05:47:30.928Z,4.34
2023-03-29T05:48:30.903Z,4.40
2023-03-29T05:49:30.908Z,4.40
2023-03-29T05:50:30.870Z,4.41
2023-03-29T05:51:30.898Z,4.42
2023-03-29T05:52:30.899Z,4.44
2023-03-29T05:53:30.857Z,4.47
2023-03-29T05:54:30.830Z,4.47
2023-03-29T05:55:30.900Z,4.50
2023-03-29T05:56:30.837Z,4.51
2023-03-29T05:57:30.807Z,4.52
2023-03-29T05:58:30.808Z,4.60
2023-03-29T05:59:30.779Z,4.60
2023-03-29T06:00:30.786Z,4.63
2023-03-29T06:01:30.760Z,4.66
2023-03-29T06:02:30.824Z,4.67
2023-03-29T06:03:30.855Z,4.70
2023-03-29T06:04:30.941Z,4.75
2023-03-29T06:05:30.785Z,4.78
2023-03-29T06:06:30.722Z,4.82
2023-03-29T06:07:30.741Z,4.85
2023-03-29T06:08:30.691Z,4.89
2023-03-29T06:09:30.735Z,4.92
2023-03-29T06:10:30.671Z,4.94
2023-03-29T06:11:30.650Z,4.97
2023-03-29T06:12:30.650Z,4.96
2023-03-29T06:13:30.630Z,4.99
2023-03-29T06:14:30.852Z,5.02
2023-03-29T06:15:30.598Z,5.04
2023-03-29T06:16:30.620Z,5.07
2023-03-29T06:17:30.656Z,5.10
2023-03-29T06:18:30.591Z,5.15
2023-03-29T06:19:30.639Z,5.18
2023-03-29T06:20:30.557Z,5.18
2023-03-29T06:21:30.538Z,5.22
2023-03-29T06:22:30.525Z,5.22
2023-03-29T06:23:30.516Z,5.25
2023-03-29T06:24:30.502Z,5.27
2023-03-29T06:25:30.505Z,5.27
2023-03-29T06:26:30.506Z,5.30
2023-03-29T06:27:30.526Z,5.35
2023-03-29T06:28:30.494Z,5.38
2023-03-29T06:29:30.451Z,5.39
2023-03-29T06:30:30.443Z,5.40
2023-03-29T06:31:30.457Z,5.45
2023-03-29T06:32:30.474Z,5.49
2023-03-29T06:33:30.415Z,5.56
2023-03-29T06:34:30.397Z,5.60
2023-03-29T06:35:30.396Z,5.61
2023-03-29T06:36:30.441Z,5.64
2023-03-29T06:37:30.382Z,5.67
2023-03-29T06:38:30.478Z,5.65
2023-03-29T06:39:30.345Z,5.67
2023-03-29T06:40:30.334Z,5.68
2023-03-29T06:41:30.350Z,5.68
2023-03-29T06:42:30.331Z,5.67
2023-03-29T06:43:30.316Z,5.63
2023-03-29T06:44:30.285Z,5.60
2023-03-29T06:45:30.283Z,5.60
2023-03-29T06:46:30.325Z,5.54
2023-03-29T06:47:30.279Z,5.56
2023-03-29T06:48:30.275Z,5.54
2023-03-29T06:49:30.258Z,5.54
2023-03-29T06:50:30.317Z,5.56
2023-03-29T06:51:30.224Z,5.56
2023-03-29T06:52:30.194Z,5.56
2023-03-29T06:53:30.329Z,5.56
2023-03-29T06:54:30.200Z,5.60
2023-03-29T06:55:30.342Z,5.61
2023-03-29T06:56:30.168Z,5.61
2023-03-29T06:57:30.391Z,5.67
2023-03-29T06:58:30.175Z,5.68
2023-03-29T06:59:30.135Z,5.72
2023-03-29T07:00:30.118Z,5.75
2023-03-29T07:01:30.152Z,5.79
2023-03-29T07:02:30.174Z,5.85
2023-03-29T07:03:30.120Z,5.90
2023-03-29T07:04:30.119Z,5.94
2023-03-29T07:05:30.070Z,5.99
2023-03-29T07:06:30.055Z,6.04
2023-03-29T07:07:30.044Z,6.12
2023-03-29T07:08:30.034Z,6.19
2023-03-29T07:09:30.077Z,6.21
2023-03-29T07:10:30.036Z,6.30
2023-03-29T07:11:29.999Z,6.31
2023-03-29T07:12:30.002Z,6.30
2023-03-29T07:13:30.009Z,6.28
2023-03-29T07:14:30.016Z,6.28
2023-03-29T07:15:29.976Z,6.30
2023-03-29T07:16:29.991Z,6.33
2023-03-29T07:17:29.958Z,6.34
2023-03-29T07:18:29.944Z,6.34
2023-03-29T07:19:29.924Z,6.31
2023-03-29T07:20:30.046Z,6.31
2023-03-29T07:21:29.929Z,6.28
2023-03-29T07:22:29.892Z,6.25
2023-03-29T07:23:29.877Z,6.22
2023-03-29T07:24:29.872Z,6.22
2023-03-29T07:25:29.906Z,6.25
2023-03-29T07:26:30.169Z,6.22
2023-03-29T07:27:29.839Z,6.21
2023-03-29T07:28:29.881Z,6.21
2023-03-29T07:29:29.814Z,6.18
2023-03-29T07:30:32.004Z,6.19
2023-03-29T07:31:29.786Z,6.17
2023-03-29T07:32:29.845Z,6.15
2023-03-29T07:33:29.872Z,6.15
2023-03-29T07:34:29.759Z,6.12
2023-03-29T07:35:29.752Z,6.12
2023-03-29T07:36:29.735Z,6.09
2023-03-29T07:37:29.725Z,6.09
2023-03-29T07:38:29.736Z,6.06
2023-03-29T07:39:29.853Z,6.08
2023-03-29T07:40:29.995Z,6.09
2023-03-29T07:41:29.681Z,6.09
2023-03-29T07:42:29.662Z,6.11
2023-03-29T07:43:29.688Z,6.09
2023-03-29T07:44:29.686Z,6.11
2023-03-29T07:45:29.729Z,6.12
2023-03-29T07:46:29.776Z,6.14
2023-03-29T07:47:29.667Z,6.14
2023-03-29T07:48:29.605Z,6.14
2023-03-29T07:49:29.605Z,6.11
2023-03-29T07:50:29.576Z,6.12
2023-03-29T07:51:29.604Z,6.12
2023-03-29T07:52:29.608Z,6.18
2023-03-29T07:53:29.622Z,6.17
2023-03-29T07:54:29.550Z,6.18
2023-03-29T07:55:29.524Z,6.21
2023-03-29T07:56:29.546Z,6.18
2023-03-29T07:57:29.543Z,6.21
2023-03-29T07:58:29.525Z,6.18
2023-03-29T07:59:29.491Z,6.25
2023-03-29T08:00:29.496Z,6.22
2023-03-29T08:01:29.514Z,6.27
2023-03-29T08:02:29.472Z,6.31
2023-03-29T08:03:29.545Z,6.36
2023-03-29T08:04:29.523Z,6.38
2023-03-29T08:05:40.578Z,6.41
2023-03-29T08:06:29.427Z,6.43
2023-03-29T08:07:29.416Z,6.46
2023-03-29T08:08:29.404Z,6.48
2023-03-29T08:09:29.409Z,6.49
2023-03-29T08:10:29.377Z,6.44
2023-03-29T08:11:29.355Z,6.46
2023-03-29T08:12:29.363Z,6.52
2023-03-29T08:13:29.355Z,6.51
2023-03-29T08:14:29.333Z,6.52
2023-03-29T08:15:29.314Z,6.49
2023-03-29T08:16:29.391Z,6.43
2023-03-29T08:17:29.308Z,6.43
2023-03-29T08:18:29.291Z,6.40
2023-03-29T08:19:29.329Z,6.41
2023-03-29T08:20:29.254Z,6.38
2023-03-29T08:21:29.295Z,6.38
2023-03-29T08:22:29.236Z,6.36
2023-03-29T08:23:29.238Z,6.37
2023-03-29T08:24:29.240Z,6.34
2023-03-29T08:25:29.290Z,6.34
2023-03-29T08:26:29.221Z,6.33
2023-03-29T08:27:29.227Z,6.31
2023-03-29T08:28:29.174Z,6.33
2023-03-29T08:29:29.171Z,6.36
2023-03-29T08:30:29.146Z,6.37
2023-03-29T08:31:29.228Z,6.37
2023-03-29T08:32:29.240Z,6.36
2023-03-29T08:33:29.143Z,6.31
2023-03-29T08:34:29.110Z,6.31
2023-03-29T08:35:29.100Z,6.28
2023-03-29T08:36:29.093Z,6.25
2023-03-29T08:37:29.132Z,6.28
2023-03-29T08:38:29.088Z,6.27
2023-03-29T08:39:29.068Z,6.28
2023-03-29T08:40:29.065Z,6.27
2023-03-29T08:41:29.030Z,6.27
2023-03-29T08:42:29.029Z,6.31
2023-03-29T08:43:29.058Z,6.33
2023-03-29T08:44:29.013Z,6.36
2023-03-29T08:45:29.032Z,6.40
2023-03-29T08:46:34.484Z,6.40
2023-03-29T08:47:28.994Z,6.41
2023-03-29T08:48:28.999Z,6.44
2023-03-29T08:49:29.018Z,6.46
2023-03-29T08:50:29.069Z,6.51
2023-03-29T08:51:28.918Z,6.49
2023-03-29T08:52:28.966Z,6.49
2023-03-29T08:53:28.904Z,6.54
2023-03-29T08:54:28.904Z,6.51
2023-03-29T08:55:28.981Z,6.56
2023-03-29T08:56:29.239Z,6.59
2023-03-29T08:57:28.970Z,6.62
2023-03-29T08:58:28.888Z,6.62
2023-03-29T08:59:28.832Z,6.59
2023-03-29T09:00:28.834Z,6.56
2023-03-29T09:01:28.867Z,6.56
2023-03-29T09:02:28.934Z,6.59
2023-03-29T09:03:28.810Z,6.62
2023-03-29T09:04:28.817Z,6.62
2023-03-29T09:05:28.775Z,6.62
2023-03-29T09:06:28.762Z,6.62
2023-03-29T09:07:28.883Z,6.64
2023-03-29T09:08:28.779Z,6.64
2023-03-29T09:09:28.731Z,6.64
2023-03-29T09:10:28.712Z,6.69
2023-03-29T09:11:28.707Z,6.71
2023-03-29T09:12:28.698Z,6.74
2023-03-29T09:13:28.760Z,6.77
2023-03-29T09:14:28.703Z,6.84
2023-03-29T09:15:28.680Z,6.84
2023-03-29T09:16:28.671Z,6.87
2023-03-29T09:17:28.688Z,6.91
2023-03-29T09:18:28.647Z,6.99
2023-03-29T09:19:28.622Z,7.05
2023-03-29T09:20:28.608Z,7.06
2023-03-29T09:21:28.583Z,7.12
2023-03-29T09:22:28.604Z,7.15
2023-03-29T09:23:28.666Z,7.17
2023-03-29T09:24:28.574Z,7.23
2023-03-29T09:25:28.558Z,7.27
2023-03-29T09:26:28.540Z,7.25
2023-03-29T09:27:28.518Z,7.28
2023-03-29T09:28:28.517Z,7.27
2023-03-29T09:29:28.499Z,7.32
2023-03-29T09:30:28.612Z,7.39
2023-03-29T09:31:28.540Z,7.40
2023-03-29T09:32:28.481Z,7.43
2023-03-29T09:33:28.550Z,7.50
2023-03-29T09:34:28.453Z,7.58
2023-03-29T09:35:28.478Z,7.69
2023-03-29T09:36:28.440Z,7.80
2023-03-29T09:37:28.700Z,7.92
2023-03-29T09:38:28.405Z,7.98
2023-03-29T09:39:28.394Z,8.07
2023-03-29T09:40:28.379Z,8.05
2023-03-29T09:41:28.381Z,8.05
2023-03-29T09:42:28.387Z,8.00
2023-03-29T09:43:28.355Z,8.08
2023-03-29T09:44:31.381Z,8.15
2023-03-29T09:45:28.339Z,8.16
2023-03-29T09:46:28.323Z,8.15
2023-03-29T09:47:28.324Z,8.19
2023-03-29T09:48:28.326Z,8.18
2023-03-29T09:49:28.313Z,8.12
2023-03-29T09:50:31.657Z,8.19
2023-03-29T09:51:28.256Z,8.20
2023-03-29T09:52:28.295Z,8.20
2023-03-29T09:53:28.250Z,8.23
2023-03-29T09:54:28.233Z,8.29
2023-03-29T09:55:28.222Z,8.28
2023-03-29T09:56:28.244Z,8.33
2023-03-29T09:57:28.241Z,8.34
2023-03-29T09:58:28.216Z,8.30
2023-03-29T09:59:28.191Z,8.30
2023-03-29T10:00:28.199Z,8.28
2023-03-29T10:01:28.250Z,8.20
2023-03-29T10:02:28.159Z,8.22
2023-03-29T10:03:28.120Z,8.22
2023-03-29T10:04:28.147Z,8.22
2023-03-29T10:05:28.096Z,8.23
2023-03-29T10:06:28.111Z,8.18
2023-03-29T10:07:28.095Z,8.20
2023-03-29T10:08:28.090Z,8.19
2023-03-29T10:09:28.048Z,8.20
2023-03-29T10:10:28.077Z,8.15
2023-03-29T10:11:28.042Z,8.15
2023-03-29T10:12:28.076Z,8.16
2023-03-29T10:13:28.027Z,8.15
2023-03-29T10:14:28.025Z,8.11
2023-03-29T10:15:30.098Z,8.18
2023-03-29T10:16:27.999Z,8.26
2023-03-29T10:17:28.116Z,8.30
2023-03-29T10:18:27.968Z,8.30
2023-03-29T10:19:27.966Z,8.36
2023-03-29T10:20:27.940Z,8.37
2023-03-29T10:21:27.927Z,8.38
2023-03-29T10:22:27.969Z,8.40
2023-03-29T10:23:27.900Z,8.37
2023-03-29T10:24:28.024Z,8.40
2023-03-29T10:25:27.898Z,8.41
2023-03-29T10:26:27.891Z,8.47
2023-03-29T10:27:27.876Z,8.55
2023-03-29T10:28:27.850Z,8.61
2023-03-29T10:29:27.876Z,8.70
2023-03-29T10:30:27.843Z,8.66
2023-03-29T10:31:27.856Z,8.61
2023-03-29T10:32:27.867Z,8.63
2023-03-29T10:33:27.808Z,8.66
2023-03-29T10:34:27.792Z,8.61
2023-03-29T10:35:27.778Z,8.59
2023-03-29T10:36:27.827Z,8.59
2023-03-29T10:37:27.772Z,8.58
2023-03-29T10:38:27.749Z,8.58
2023-03-29T10:39:27.833Z,8.59
2023-03-29T10:40:27.753Z,8.62
2023-03-29T10:41:27.710Z,8.73
2023-03-29T10:42:27.767Z,8.83
2023-03-29T10:43:27.826Z,8.91
2023-03-29T10:44:27.774Z,8.98
2023-03-29T10:45:27.665Z,8.98
2023-03-29T10:46:27.817Z,8.98
2023-03-29T10:47:27.672Z,8.99
2023-03-29T10:48:27.649Z,8.94
2023-03-29T10:49:27.624Z,8.92
2023-03-29T10:50:27.620Z,8.87
2023-03-29T10:51:27.738Z,8.87
2023-03-29T10:52:27.591Z,8.87
2023-03-29T10:53:27.600Z,8.87
2023-03-29T10:54:27.600Z,8.89
2023-03-29T10:55:27.590Z,8.91
2023-03-29T10:56:27.587Z,8.96
2023-03-29T10:57:27.586Z,8.98
2023-03-29T10:58:27.545Z,8.98
2023-03-29T10:59:27.597Z,8.95
2023-03-29T11:00:27.516Z,8.91
2023-03-29T11:01:27.558Z,8.83
2023-03-29T11:02:27.520Z,8.83
2023-03-29T11:03:27.719Z,8.80
2023-03-29T11:04:27.467Z,8.84
2023-03-29T11:05:27.448Z,9.02
2023-03-29T11:06:27.449Z,9.17
2023-03-29T11:07:27.498Z,9.23
2023-03-29T11:08:29.678Z,9.28
2023-03-29T11:09:27.411Z,9.28
2023-03-29T11:10:27.393Z,9.17
2023-03-29T11:11:27.438Z,9.20
2023-03-29T11:12:27.372Z,9.23
2023-03-29T11:13:27.357Z,9.21
2023-03-29T11:14:27.356Z,9.18
2023-03-29T11:15:27.339Z,9.26
2023-03-29T11:16:27.380Z,9.33
2023-03-29T11:17:27.403Z,9.38
2023-03-29T11:18:27.331Z,9.40
2023-03-29T11:19:27.297Z,9.42
2023-03-29T11:20:27.375Z,9.39
2023-03-29T11:21:27.266Z,9.38
2023-03-29T11:22:27.279Z,9.31
2023-03-29T11:23:27.244Z,9.21
2023-03-29T11:24:27.341Z,9.13
2023-03-29T11:25:29.551Z,9.15
2023-03-29T11:26:27.240Z,9.21
2023-03-29T11:27:27.332Z,9.33
2023-03-29T11:28:27.190Z,9.54
2023-03-29T11:29:27.209Z,9.61
2023-03-29T11:30:27.265Z,9.60
2023-03-29T11:31:27.204Z,9.60
2023-03-29T11:32:27.385Z,9.60
2023-03-29T11:33:27.146Z,9.74
2023-03-29T11:34:27.255Z,9.81
2023-03-29T11:35:27.115Z,9.86
2023-03-29T11:36:27.137Z,9.94
2023-03-29T11:37:27.095Z,9.97
2023-03-29T11:38:27.095Z,10.07
2023-03-29T11:39:27.093Z,10.01
2023-03-29T11:40:27.119Z,9.94
2023-03-29T11:41:27.051Z,9.90
2023-03-29T11:42:27.045Z,9.86
2023-03-29T11:43:27.028Z,9.76
2023-03-29T11:44:27.050Z,9.68
2023-03-29T11:45:27.007Z,9.65
2023-03-29T11:46:27.058Z,9.61
2023-03-29T11:47:27.097Z,9.58
2023-03-29T11:48:26.980Z,9.56
2023-03-29T11:49:26.967Z,9.58
2023-03-29T11:50:26.974Z,9.60
2023-03-29T11:51:26.955Z,9.61
2023-03-29T11:52:26.971Z,9.68
2023-03-29T11:53:26.923Z,9.94
2023-03-29T11:54:26.924Z,10.53
2023-03-29T11:55:26.922Z,11.04
2023-03-29T11:56:26.942Z,11.10
2023-03-29T11:57:27.055Z,11.28
2023-03-29T11:58:26.881Z,11.28
2023-03-29T11:59:26.865Z,11.06
2023-03-29T12:00:26.839Z,10.74
2023-03-29T12:01:26.841Z,10.40
2023-03-29T12:02:26.889Z,10.15
2023-03-29T12:03:26.890Z,9.97
2023-03-29T12:04:26.838Z,9.90
2023-03-29T12:05:26.787Z,9.83
2023-03-29T12:06:26.847Z,9.89
2023-03-29T12:07:26.849Z,9.90
2023-03-29T12:08:26.777Z,9.94
2023-03-29T12:09:26.883Z,9.96
2023-03-29T12:10:26.801Z,9.96
2023-03-29T12:11:26.720Z,9.79
2023-03-29T12:12:26.709Z,9.71
2023-03-29T12:13:26.708Z,9.64
2023-03-29T12:14:28.105Z,9.56
2023-03-29T12:15:26.711Z,9.51
2023-03-29T12:16:26.755Z,9.48
2023-03-29T12:17:26.673Z,9.46
2023-03-29T12:18:26.663Z,9.38
2023-03-29T12:19:26.662Z,9.32
2023-03-29T12:20:26.688Z,9.23
2023-03-29T12:21:26.614Z,9.17
2023-03-29T12:22:26.633Z,9.14
2023-03-29T12:23:26.628Z,9.10
2023-03-29T12:24:26.704Z,9.08
2023-03-29T12:25:26.585Z,9.05
2023-03-29T12:26:26.563Z,9.04
2023-03-29T12:27:26.581Z,9.04
2023-03-29T12:28:26.591Z,9.01
2023-03-29T12:29:26.514Z,8.94
2023-03-29T12:30:26.571Z,8.92
2023-03-29T12:31:26.517Z,8.89
2023-03-29T12:32:26.594Z,8.87
2023-03-29T12:33:26.481Z,8.81
2023-03-29T12:34:26.490Z,8.79
2023-03-29T12:35:26.460Z,8.81
2023-03-29T12:36:26.472Z,8.87
2023-03-29T12:37:26.520Z,8.86
2023-03-29T12:38:28.688Z,8.87
2023-03-29T12:39:26.431Z,8.87
2023-03-29T12:40:26.501Z,8.95
2023-03-29T12:41:26.412Z,8.99
2023-03-29T12:42:26.412Z,9.04
2023-03-29T12:43:26.402Z,9.15
2023-03-29T12:44:26.420Z,9.28
2023-03-29T12:45:26.357Z,9.24
2023-03-29T12:46:26.533Z,9.28
2023-03-29T12:47:26.418Z,9.36
2023-03-29T12:48:26.317Z,9.40
2023-03-29T12:49:26.327Z,9.42
2023-03-29T12:50:26.315Z,9.40
2023-03-29T12:51:26.294Z,9.35
2023-03-29T12:52:26.303Z,9.31
2023-03-29T12:53:26.324Z,9.32
2023-03-29T12:54:28.068Z,9.39
2023-03-29T12:55:26.247Z,9.40
2023-03-29T12:56:26.233Z,9.48
2023-03-29T12:57:26.242Z,9.53
2023-03-29T12:58:26.213Z,9.51
2023-03-29T12:59:26.240Z,9.43
2023-03-29T13:00:26.204Z,9.42
2023-03-29T13:01:26.551Z,9.40
2023-03-29T13:02:26.228Z,9.40
2023-03-29T13:03:26.245Z,9.35
2023-03-29T13:04:26.149Z,9.38
2023-03-29T13:05:26.192Z,9.39
2023-03-29T13:06:26.257Z,9.43
2023-03-29T13:07:26.171Z,9.50
2023-03-29T13:08:26.121Z,9.50
2023-03-29T13:09:26.177Z,9.57
2023-03-29T13:10:26.198Z,9.61
2023-03-29T13:11:26.121Z,9.68
2023-03-29T13:12:26.720Z,9.68
2023-03-29T13:13:26.058Z,9.69
2023-03-29T13:14:26.028Z,9.75
2023-03-29T13:15:26.052Z,9.72
2023-03-29T13:16:26.040Z,9.78
2023-03-29T13:17:26.131Z,9.87
2023-03-29T13:18:26.002Z,9.96